sensor_id;sensor_type;location;lat;lon;timestamp;pressure;altitude;pressure_sealevel;temperature;humidity
75221;BME280;63802;53.232;6.570;2023-02-15T00:01:37;103061.97;;;0.47;95.38
75221;BME280;63802;53.232;6.570;2023-02-15T00:04:04;103065.69;;;0.46;95.59
75221;BME280;63802;53.232;6.570;2023-02-15T00:06:30;103061.41;;;0.45;95.74
75221;BME280;63802;53.232;6.570;2023-02-15T00:08:56;103058.13;;;0.43;95.66
75221;BME280;63802;53.232;6.570;2023-02-15T00:11:22;103046.13;;;0.34;95.84
75221;BME280;63802;53.232;6.570;2023-02-15T00:14:18;103048.25;;;0.32;95.74
75221;BME280;63802;53.232;6.570;2023-02-15T00:16:45;103056.06;;;0.33;95.67
75221;BME280;63802;53.232;6.570;2023-02-15T00:19:12;103046.94;;;0.34;95.52
75221;BME280;63802;53.232;6.570;2023-02-15T00:21:38;103041.34;;;0.36;95.66
75221;BME280;63802;53.232;6.570;2023-02-15T00:24:06;103041.94;;;0.38;95.66
75221;BME280;63802;53.232;6.570;2023-02-15T00:26:32;103041.94;;;0.38;95.75
75221;BME280;63802;53.232;6.570;2023-02-15T00:28:58;103035.72;;;0.37;95.51
75221;BME280;63802;53.232;6.570;2023-02-15T00:31:24;103034.34;;;0.35;95.89
75221;BME280;63802;53.232;6.570;2023-02-15T00:33:49;103042.66;;;0.33;95.84
75221;BME280;63802;53.232;6.570;2023-02-15T00:36:15;103034.59;;;0.33;96.21
75221;BME280;63802;53.232;6.570;2023-02-15T00:38:41;103036.69;;;0.31;95.87
75221;BME280;63802;53.232;6.570;2023-02-15T00:41:07;103023.09;;;0.21;95.81
75221;BME280;63802;53.232;6.570;2023-02-15T00:43:34;103031.94;;;0.22;95.95
75221;BME280;63802;53.232;6.570;2023-02-15T00:46:00;103030.78;;;0.18;95.93
75221;BME280;63802;53.232;6.570;2023-02-15T00:48:25;103025.88;;;0.15;95.85
75221;BME280;63802;53.232;6.570;2023-02-15T00:50:53;103025.22;;;0.08;95.66
75221;BME280;63802;53.232;6.570;2023-02-15T00:53:20;103026.28;;;0.07;95.98
75221;BME280;63802;53.232;6.570;2023-02-15T00:55:46;103018.53;;;0.10;95.92
75221;BME280;63802;53.232;6.570;2023-02-15T00:58:12;103011.78;;;0.08;95.95
75221;BME280;63802;53.232;6.570;2023-02-15T01:00:38;103019.84;;;0.08;96.16
75221;BME280;63802;53.232;6.570;2023-02-15T01:03:05;103026.84;;;0.09;96.00
75221;BME280;63802;53.232;6.570;2023-02-15T01:05:31;103026.50;;;0.05;95.94
75221;BME280;63802;53.232;6.570;2023-02-15T01:07:57;103012.50;;;0.03;96.05
75221;BME280;63802;53.232;6.570;2023-02-15T01:10:23;103005.75;;;0.00;96.14
75221;BME280;63802;53.232;6.570;2023-02-15T01:12:50;103017.25;;;0.13;96.05
75221;BME280;63802;53.232;6.570;2023-02-15T01:15:15;103014.00;;;0.11;96.02
75221;BME280;63802;53.232;6.570;2023-02-15T01:17:41;103016.13;;;0.09;96.60
75221;BME280;63802;53.232;6.570;2023-02-15T01:20:07;103011.22;;;0.06;96.11
75221;BME280;63802;53.232;6.570;2023-02-15T01:22:32;103006.91;;;0.05;96.26
75221;BME280;63802;53.232;6.570;2023-02-15T01:24:58;102995.50;;;-0.03;96.20
75221;BME280;63802;53.232;6.570;2023-02-15T01:27:23;102998.50;;;0.01;96.17
75221;BME280;63802;53.232;6.570;2023-02-15T01:29:49;103000.78;;;-0.08;96.09
75221;BME280;63802;53.232;6.570;2023-02-15T01:32:14;102999.69;;;-0.07;96.20
75221;BME280;63802;53.232;6.570;2023-02-15T01:34:40;102992.94;;;-0.09;95.84
75221;BME280;63802;53.232;6.570;2023-02-15T01:37:05;102987.47;;;-0.14;96.44
75221;BME280;63802;53.232;6.570;2023-02-15T01:39:31;102985.59;;;-0.14;96.32
75221;BME280;63802;53.232;6.570;2023-02-15T01:41:56;102979.31;;;-0.19;96.22
75221;BME280;63802;53.232;6.570;2023-02-15T01:44:50;102973.59;;;-0.11;96.25
75221;BME280;63802;53.232;6.570;2023-02-15T01:47:33;102979.09;;;-0.18;96.26
75221;BME280;63802;53.232;6.570;2023-02-15T01:52:44;102975.00;;;-0.20;96.46
75221;BME280;63802;53.232;6.570;2023-02-15T01:55:12;102970.13;;;-0.23;96.09
75221;BME280;63802;53.232;6.570;2023-02-15T01:57:38;102970.13;;;-0.23;96.03
75221;BME280;63802;53.232;6.570;2023-02-15T02:00:04;102974.78;;;-0.30;96.32
75221;BME280;63802;53.232;6.570;2023-02-15T02:02:31;102977.63;;;-0.37;96.57
75221;BME280;63802;53.232;6.570;2023-02-15T02:05:00;102968.75;;;-0.37;96.52
75221;BME280;63802;53.232;6.570;2023-02-15T02:07:31;102974.94;;;-0.37;96.40
75221;BME280;63802;53.232;6.570;2023-02-15T02:09:58;102967.94;;;-0.38;95.96
75221;BME280;63802;53.232;6.570;2023-02-15T02:12:24;102957.69;;;-0.41;96.11
75221;BME280;63802;53.232;6.570;2023-02-15T02:14:51;102942.06;;;-0.44;96.50
75221;BME280;63802;53.232;6.570;2023-02-15T02:17:25;102944.88;;;-0.39;96.13
75221;BME280;63802;53.232;6.570;2023-02-15T02:25:51;102954.22;;;-0.53;96.35
75221;BME280;63802;53.232;6.570;2023-02-15T02:34:15;102939.41;;;-0.55;96.19
75221;BME280;63802;53.232;6.570;2023-02-15T02:36:52;102941.28;;;-0.56;96.54
75221;BME280;63802;53.232;6.570;2023-02-15T02:39:29;102944.28;;;-0.52;96.46
75221;BME280;63802;53.232;6.570;2023-02-15T02:42:41;102945.00;;;-0.57;96.48
75221;BME280;63802;53.232;6.570;2023-02-15T02:47:51;102936.63;;;-0.60;96.33
75221;BME280;63802;53.232;6.570;2023-02-15T02:50:23;102926.69;;;-0.60;96.35
75221;BME280;63802;53.232;6.570;2023-02-15T02:52:52;102926.69;;;-0.60;96.40
75221;BME280;63802;53.232;6.570;2023-02-15T02:55:31;102913.78;;;-0.63;96.55
75221;BME280;63802;53.232;6.570;2023-02-15T03:01:03;102909.94;;;-0.67;96.64
75221;BME280;63802;53.232;6.570;2023-02-15T03:03:58;102918.22;;;-0.69;96.76
75221;BME280;63802;53.232;6.570;2023-02-15T03:06:40;102915.22;;;-0.72;96.67
75221;BME280;63802;53.232;6.570;2023-02-15T03:09:14;102904.94;;;-0.75;96.48
75221;BME280;63802;53.232;6.570;2023-02-15T03:11:47;102915.09;;;-0.77;96.54
75221;BME280;63802;53.232;6.570;2023-02-15T03:14:14;102897.38;;;-0.78;96.76
75221;BME280;63802;53.232;6.570;2023-02-15T03:16:43;102907.53;;;-0.80;96.48
75221;BME280;63802;53.232;6.570;2023-02-15T03:19:12;102905.28;;;-0.83;96.60
75221;BME280;63802;53.232;6.570;2023-02-15T03:21:50;102898.78;;;-0.87;96.67
75221;BME280;63802;53.232;6.570;2023-02-15T03:24:26;102901.69;;;-0.89;96.50
75221;BME280;63802;53.232;6.570;2023-02-15T03:26:54;102901.94;;;-0.90;96.55
75221;BME280;63802;53.232;6.570;2023-02-15T03:29:25;102895.41;;;-0.94;96.66
75221;BME280;63802;53.232;6.570;2023-02-15T03:31:56;102890.63;;;-0.92;96.41
75221;BME280;63802;53.232;6.570;2023-02-15T03:34:23;102883.31;;;-0.97;96.77
75221;BME280;63802;53.232;6.570;2023-02-15T03:39:32;102876.44;;;-1.04;96.53
75221;BME280;63802;53.232;6.570;2023-02-15T03:42:08;102873.28;;;-1.01;96.52
75221;BME280;63802;53.232;6.570;2023-02-15T03:44:55;102875.47;;;-0.98;96.27
75221;BME280;63802;53.232;6.570;2023-02-15T03:47:27;102858.50;;;-1.04;96.48
75221;BME280;63802;53.232;6.570;2023-02-15T03:50:13;102870.13;;;-0.98;96.41
75221;BME280;63802;53.232;6.570;2023-02-15T03:53:02;102868.97;;;-1.02;96.64
75221;BME280;63802;53.232;6.570;2023-02-15T03:55:30;102871.06;;;-1.04;96.74
75221;BME280;63802;53.232;6.570;2023-02-15T03:57:55;102862.00;;;-1.03;96.86
75221;BME280;63802;53.232;6.570;2023-02-15T04:00:47;102867.81;;;-1.06;96.74
75221;BME280;63802;53.232;6.570;2023-02-15T04:03:43;102869.44;;;-1.05;96.73
75221;BME280;63802;53.232;6.570;2023-02-15T04:06:10;102873.19;;;-1.06;96.72
75221;BME280;63802;53.232;6.570;2023-02-15T04:08:35;102866.63;;;-1.10;96.52
75221;BME280;63802;53.232;6.570;2023-02-15T04:11:19;102873.63;;;-1.09;96.79
75221;BME280;63802;53.232;6.570;2023-02-15T04:13:44;102870.38;;;-1.11;97.02
75221;BME280;63802;53.232;6.570;2023-02-15T04:16:09;102878.19;;;-1.10;97.19
75221;BME280;63802;53.232;6.570;2023-02-15T04:18:41;102863.97;;;-1.10;96.77
75221;BME280;63802;53.232;6.570;2023-02-15T04:21:27;102862.34;;;-1.11;96.87
75221;BME280;63802;53.232;6.570;2023-02-15T04:24:12;102859.66;;;-1.11;96.92
75221;BME280;63802;53.232;6.570;2023-02-15T04:26:56;102857.25;;;-1.13;96.89
75221;BME280;63802;53.232;6.570;2023-02-15T04:29:23;102860.59;;;-1.17;96.72
75221;BME280;63802;53.232;6.570;2023-02-15T04:31:50;102859.56;;;-1.16;96.56
75221;BME280;63802;53.232;6.570;2023-02-15T04:34:15;102854.78;;;-1.14;96.81
75221;BME280;63802;53.232;6.570;2023-02-15T04:36:41;102854.78;;;-1.14;96.65
75221;BME280;63802;53.232;6.570;2023-02-15T04:39:07;102845.81;;;-1.20;96.87
75221;BME280;63802;53.232;6.570;2023-02-15T04:41:33;102840.34;;;-1.13;96.71
75221;BME280;63802;53.232;6.570;2023-02-15T04:43:59;102848.50;;;-1.08;96.52
75221;BME280;63802;53.232;6.570;2023-02-15T04:46:26;102841.59;;;-1.04;97.17
75221;BME280;63802;53.232;6.570;2023-02-15T04:48:51;102834.16;;;-1.02;97.05
75221;BME280;63802;53.232;6.570;2023-02-15T04:51:17;102831.13;;;-1.06;97.04
75221;BME280;63802;53.232;6.570;2023-02-15T04:53:42;102841.03;;;-1.06;96.81
75221;BME280;63802;53.232;6.570;2023-02-15T04:56:07;102831.25;;;-1.12;96.78
75221;BME280;63802;53.232;6.570;2023-02-15T04:58:33;102825.31;;;-1.14;97.01
75221;BME280;63802;53.232;6.570;2023-02-15T05:00:58;102834.41;;;-1.15;96.79
75221;BME280;63802;53.232;6.570;2023-02-15T05:03:24;102831.38;;;-1.19;96.79
75221;BME280;63802;53.232;6.570;2023-02-15T05:05:50;102824.72;;;-1.16;97.02
75221;BME280;63802;53.232;6.570;2023-02-15T05:08:16;102818.56;;;-1.17;96.89
75221;BME280;63802;53.232;6.570;2023-02-15T05:10:42;102837.31;;;-1.17;96.86
75221;BME280;63802;53.232;6.570;2023-02-15T05:13:07;102822.41;;;-1.24;96.65
75221;BME280;63802;53.232;6.570;2023-02-15T05:15:33;102825.19;;;-1.19;96.89
75221;BME280;63802;53.232;6.570;2023-02-15T05:17:58;102819.38;;;-1.16;96.71
75221;BME280;63802;53.232;6.570;2023-02-15T05:20:23;102818.81;;;-1.18;96.97
75221;BME280;63802;53.232;6.570;2023-02-15T05:22:53;102805.41;;;-1.18;96.87
75221;BME280;63802;53.232;6.570;2023-02-15T05:25:18;102811.47;;;-1.11;96.73
75221;BME280;63802;53.232;6.570;2023-02-15T05:28:02;102806.09;;;-1.11;97.08
75221;BME280;63802;53.232;6.570;2023-02-15T05:30:47;102804.22;;;-0.99;96.83
75221;BME280;63802;53.232;6.570;2023-02-15T05:33:13;102807.09;;;-0.89;97.23
75221;BME280;63802;53.232;6.570;2023-02-15T05:35:38;102813.72;;;-0.80;97.01
75221;BME280;63802;53.232;6.570;2023-02-15T05:38:04;102813.00;;;-0.76;97.29
75221;BME280;63802;53.232;6.570;2023-02-15T05:40:29;102807.88;;;-0.77;97.26
75221;BME280;63802;53.232;6.570;2023-02-15T05:42:55;102795.41;;;-0.83;97.29
75221;BME280;63802;53.232;6.570;2023-02-15T05:45:21;102797.75;;;-0.75;96.96
75221;BME280;63802;53.232;6.570;2023-02-15T05:47:46;102792.94;;;-0.73;97.10
75221;BME280;63802;53.232;6.570;2023-02-15T05:50:12;102788.41;;;-0.73;96.96
75221;BME280;63802;53.232;6.570;2023-02-15T05:52:37;102768.06;;;-0.85;97.13
75221;BME280;63802;53.232;6.570;2023-02-15T05:55:03;102793.78;;;-0.73;97.08
75221;BME280;63802;53.232;6.570;2023-02-15T05:57:32;102796.66;;;-0.74;97.11
75221;BME280;63802;53.232;6.570;2023-02-15T05:59:58;102796.56;;;-0.79;97.26
75221;BME280;63802;53.232;6.570;2023-02-15T06:02:23;102780.19;;;-0.94;96.97
75221;BME280;63802;53.232;6.570;2023-02-15T06:04:49;102796.38;;;-0.89;97.22
75221;BME280;63802;53.232;6.570;2023-02-15T06:07:14;102799.84;;;-0.89;97.37
75221;BME280;63802;53.232;6.570;2023-02-15T06:09:40;102793.34;;;-0.93;96.90
75221;BME280;63802;53.232;6.570;2023-02-15T06:12:05;102785.56;;;-0.94;97.28
75221;BME280;63802;53.232;6.570;2023-02-15T06:14:30;102776.97;;;-0.96;97.29
75221;BME280;63802;53.232;6.570;2023-02-15T06:16:56;102774.28;;;-0.68;97.32
75221;BME280;63802;53.232;6.570;2023-02-15T06:19:21;102795.72;;;-0.40;97.59
75221;BME280;63802;53.232;6.570;2023-02-15T06:21:48;102794.06;;;-0.13;97.73
75221;BME280;63802;53.232;6.570;2023-02-15T06:24:13;102799.09;;;0.00;97.65
75221;BME280;63802;53.232;6.570;2023-02-15T06:26:38;102792.13;;;-0.01;97.48
75221;BME280;63802;53.232;6.570;2023-02-15T06:29:04;102796.84;;;0.26;97.60
75221;BME280;63802;53.232;6.570;2023-02-15T06:31:31;102795.16;;;0.58;97.65
75221;BME280;63802;53.232;6.570;2023-02-15T06:33:57;102779.00;;;0.96;97.93
75221;BME280;63802;53.232;6.570;2023-02-15T06:36:27;102782.56;;;1.23;97.54
75221;BME280;63802;53.232;6.570;2023-02-15T06:38:54;102785.44;;;1.39;97.73
75221;BME280;63802;53.232;6.570;2023-02-15T06:41:19;102780.41;;;1.47;97.82
75221;BME280;63802;53.232;6.570;2023-02-15T06:43:45;102772.78;;;1.61;97.70
75221;BME280;63802;53.232;6.570;2023-02-15T06:46:11;102785.78;;;1.74;97.87
75221;BME280;63802;53.232;6.570;2023-02-15T06:48:36;102790.72;;;1.82;98.00
75221;BME280;63802;53.232;6.570;2023-02-15T06:51:01;102784.75;;;1.75;97.98
75221;BME280;63802;53.232;6.570;2023-02-15T06:53:27;102785.25;;;1.72;97.97
75221;BME280;63802;53.232;6.570;2023-02-15T06:55:53;102786.91;;;1.78;97.89
75221;BME280;63802;53.232;6.570;2023-02-15T06:58:24;102779.03;;;1.71;98.10
75221;BME280;63802;53.232;6.570;2023-02-15T07:00:51;102781.28;;;1.79;98.05
75221;BME280;63802;53.232;6.570;2023-02-15T07:03:16;102776.22;;;1.88;97.92
75221;BME280;63802;53.232;6.570;2023-02-15T07:05:42;102779.44;;;1.85;97.91
75221;BME280;63802;53.232;6.570;2023-02-15T07:08:08;102783.19;;;1.84;97.75
75221;BME280;63802;53.232;6.570;2023-02-15T07:10:34;102781.56;;;1.83;97.93
75221;BME280;63802;53.232;6.570;2023-02-15T07:12:59;102786.13;;;1.82;97.88
75221;BME280;63802;53.232;6.570;2023-02-15T07:15:25;102774.03;;;1.80;97.96
75221;BME280;63802;53.232;6.570;2023-02-15T07:17:51;102772.88;;;1.76;97.94
75221;BME280;63802;53.232;6.570;2023-02-15T07:20:22;102771.84;;;1.77;97.95
75221;BME280;63802;53.232;6.570;2023-02-15T07:22:48;102779.97;;;1.82;97.67
75221;BME280;63802;53.232;6.570;2023-02-15T07:25:14;102778.31;;;1.81;97.98
75221;BME280;63802;53.232;6.570;2023-02-15T07:27:40;102769.19;;;1.82;97.84
75221;BME280;63802;53.232;6.570;2023-02-15T07:30:07;102771.94;;;1.87;97.72
75221;BME280;63802;53.232;6.570;2023-02-15T07:32:33;102766.28;;;1.88;98.03
75221;BME280;63802;53.232;6.570;2023-02-15T07:34:59;102778.47;;;1.96;97.83
75221;BME280;63802;53.232;6.570;2023-02-15T07:37:24;102770.97;;;2.03;97.84
75221;BME280;63802;53.232;6.570;2023-02-15T07:39:50;102773.97;;;2.07;97.73
75221;BME280;63802;53.232;6.570;2023-02-15T07:42:16;102768.94;;;2.15;97.73
75221;BME280;63802;53.232;6.570;2023-02-15T07:44:43;102775.72;;;2.23;97.69
75221;BME280;63802;53.232;6.570;2023-02-15T07:47:08;102767.88;;;2.21;97.50
75221;BME280;63802;53.232;6.570;2023-02-15T07:49:34;102763.63;;;2.25;97.43
75221;BME280;63802;53.232;6.570;2023-02-15T07:52:00;102756.06;;;2.22;97.34
75221;BME280;63802;53.232;6.570;2023-02-15T07:54:27;102758.50;;;2.29;97.52
75221;BME280;63802;53.232;6.570;2023-02-15T07:56:52;102752.88;;;2.30;97.44
75221;BME280;63802;53.232;6.570;2023-02-15T07:59:18;102752.88;;;2.30;97.42
75221;BME280;63802;53.232;6.570;2023-02-15T08:01:43;102752.09;;;2.35;97.33
75221;BME280;63802;53.232;6.570;2023-02-15T08:04:09;102737.84;;;2.39;97.23
75221;BME280;63802;53.232;6.570;2023-02-15T08:06:36;102742.19;;;2.45;97.47
75221;BME280;63802;53.232;6.570;2023-02-15T08:09:07;102738.97;;;2.48;97.10
75221;BME280;63802;53.232;6.570;2023-02-15T08:11:36;102743.88;;;2.56;96.90
75221;BME280;63802;53.232;6.570;2023-02-15T08:16:50;102747.38;;;2.62;97.27
75221;BME280;63802;53.232;6.570;2023-02-15T08:19:22;102739.56;;;2.60;96.86
75221;BME280;63802;53.232;6.570;2023-02-15T08:21:56;102731.53;;;2.65;96.93
75221;BME280;63802;53.232;6.570;2023-02-15T08:24:23;102738.53;;;2.71;96.59
75221;BME280;63802;53.232;6.570;2023-02-15T08:26:50;102716.69;;;2.63;96.59
75221;BME280;63802;53.232;6.570;2023-02-15T08:29:18;102731.03;;;2.79;96.47
75221;BME280;63802;53.232;6.570;2023-02-15T08:31:45;102729.72;;;2.86;96.81
75221;BME280;63802;53.232;6.570;2023-02-15T08:34:13;102729.22;;;2.94;96.56
75221;BME280;63802;53.232;6.570;2023-02-15T08:36:39;102730.59;;;3.02;96.43
75221;BME280;63802;53.232;6.570;2023-02-15T08:39:06;102727.91;;;3.02;96.27
75221;BME280;63802;53.232;6.570;2023-02-15T08:41:36;102731.97;;;3.09;96.07
75221;BME280;63802;53.232;6.570;2023-02-15T08:44:04;102717.69;;;3.14;96.02
75221;BME280;63802;53.232;6.570;2023-02-15T08:46:32;102713.66;;;3.16;95.95
75221;BME280;63802;53.232;6.570;2023-02-15T08:48:59;102712.28;;;3.24;95.93
75221;BME280;63802;53.232;6.570;2023-02-15T08:51:27;102710.41;;;3.29;96.02
75221;BME280;63802;53.232;6.570;2023-02-15T08:53:56;102711.25;;;3.35;95.90
75221;BME280;63802;53.232;6.570;2023-02-15T08:56:25;102720.97;;;3.41;95.68
75221;BME280;63802;53.232;6.570;2023-02-15T08:58:52;102715.34;;;3.53;95.31
75221;BME280;63802;53.232;6.570;2023-02-15T09:01:21;102721.28;;;3.60;95.36
75221;BME280;63802;53.232;6.570;2023-02-15T09:03:48;102716.13;;;3.73;95.00
75221;BME280;63802;53.232;6.570;2023-02-15T09:06:15;102713.44;;;3.88;94.92
75221;BME280;63802;53.232;6.570;2023-02-15T09:08:41;102705.31;;;4.03;94.82
75221;BME280;63802;53.232;6.570;2023-02-15T09:13:31;102704.22;;;4.20;94.11
75221;BME280;63802;53.232;6.570;2023-02-15T09:16:02;102704.22;;;4.20;93.87
75221;BME280;63802;53.232;6.570;2023-02-15T09:18:33;102697.72;;;4.26;93.61
75221;BME280;63802;53.232;6.570;2023-02-15T09:21:09;102711.22;;;4.36;93.01
75221;BME280;63802;53.232;6.570;2023-02-15T09:23:35;102707.69;;;4.35;92.81
75221;BME280;63802;53.232;6.570;2023-02-15T09:26:03;102701.97;;;4.42;92.87
75221;BME280;63802;53.232;6.570;2023-02-15T09:28:29;102701.97;;;4.52;92.41
75221;BME280;63802;53.232;6.570;2023-02-15T09:30:54;102697.59;;;4.61;92.24
75221;BME280;63802;53.232;6.570;2023-02-15T09:33:20;102694.31;;;4.69;91.68
75221;BME280;63802;53.232;6.570;2023-02-15T09:35:47;102683.72;;;4.83;91.19
75221;BME280;63802;53.232;6.570;2023-02-15T09:38:12;102687.13;;;5.03;91.09
75221;BME280;63802;53.232;6.570;2023-02-15T09:40:46;102684.88;;;5.20;90.16
75221;BME280;63802;53.232;6.570;2023-02-15T09:43:32;102684.94;;;5.49;89.75
75221;BME280;63802;53.232;6.570;2023-02-15T09:48:42;102687.09;;;5.81;88.47
75221;BME280;63802;53.232;6.570;2023-02-15T09:57:00;102683.75;;;6.46;86.38
75221;BME280;63802;53.232;6.570;2023-02-15T09:59:35;102684.34;;;6.67;85.63
75221;BME280;63802;53.232;6.570;2023-02-15T10:04:54;102680.91;;;6.99;83.91
75221;BME280;63802;53.232;6.570;2023-02-15T10:07:56;102687.31;;;7.08;82.96
75221;BME280;63802;53.232;6.570;2023-02-15T10:13:32;102682.16;;;7.06;81.89
75221;BME280;63802;53.232;6.570;2023-02-15T10:18:55;102680.19;;;7.12;80.63
75221;BME280;63802;53.232;6.570;2023-02-15T10:24:46;102666.25;;;7.00;80.62
75221;BME280;63802;53.232;6.570;2023-02-15T10:27:20;102677.75;;;6.92;80.16
75221;BME280;63802;53.232;6.570;2023-02-15T10:30:29;102676.22;;;7.23;80.28
75221;BME280;63802;53.232;6.570;2023-02-15T10:33:03;102665.72;;;7.35;79.60
75221;BME280;63802;53.232;6.570;2023-02-15T10:40:55;102667.53;;;7.58;78.67
75221;BME280;63802;53.232;6.570;2023-02-15T10:48:54;102668.25;;;8.09;77.60
75221;BME280;63802;53.232;6.570;2023-02-15T10:54:11;102661.81;;;8.73;76.41
75221;BME280;63802;53.232;6.570;2023-02-15T10:57:02;102657.25;;;8.96;75.20
75221;BME280;63802;53.232;6.570;2023-02-15T10:59:42;102657.22;;;9.32;74.80
75221;BME280;63802;53.232;6.570;2023-02-15T11:07:48;102655.13;;;9.51;73.23
75221;BME280;63802;53.232;6.570;2023-02-15T11:12:45;102644.28;;;9.15;73.53
75221;BME280;63802;53.232;6.570;2023-02-15T11:15:38;102643.25;;;9.47;73.32
75221;BME280;63802;53.232;6.570;2023-02-15T11:23:36;102637.19;;;9.81;71.99
75221;BME280;63802;53.232;6.570;2023-02-15T11:26:12;102630.94;;;9.80;71.75
75221;BME280;63802;53.232;6.570;2023-02-15T11:28:59;102632.91;;;9.88;70.96
75221;BME280;63802;53.232;6.570;2023-02-15T11:31:34;102637.38;;;10.15;71.10
75221;BME280;63802;53.232;6.570;2023-02-15T11:34:10;102627.97;;;10.30;70.83
75221;BME280;63802;53.232;6.570;2023-02-15T11:36:39;102623.19;;;10.44;69.79
75221;BME280;63802;53.232;6.570;2023-02-15T11:39:11;102628.09;;;10.16;70.01
75221;BME280;63802;53.232;6.570;2023-02-15T11:41:53;102607.28;;;10.37;69.85
75221;BME280;63802;53.232;6.570;2023-02-15T11:44:37;102612.78;;;10.06;69.58
75221;BME280;63802;53.232;6.570;2023-02-15T11:47:10;102598.63;;;10.35;70.31
75221;BME280;63802;53.232;6.570;2023-02-15T11:49:36;102599.66;;;10.65;69.49
75221;BME280;63802;53.232;6.570;2023-02-15T11:52:07;102604.97;;;10.22;69.08
75221;BME280;63802;53.232;6.570;2023-02-15T11:54:39;102595.34;;;10.16;69.50
75221;BME280;63802;53.232;6.570;2023-02-15T11:57:28;102588.59;;;10.22;69.14
75221;BME280;63802;53.232;6.570;2023-02-15T12:01:10;102586.44;;;10.41;68.52
75221;BME280;63802;53.232;6.570;2023-02-15T12:03:11;102581.66;;;10.98;68.70
75221;BME280;63802;53.232;6.570;2023-02-15T12:05:42;102583.25;;;11.16;67.42
75221;BME280;63802;53.232;6.570;2023-02-15T12:10:58;102575.31;;;11.58;66.26
75221;BME280;63802;53.232;6.570;2023-02-15T12:13:26;102571.09;;;11.60;65.80
75221;BME280;63802;53.232;6.570;2023-02-15T12:15:57;102569.22;;;11.43;65.20
75221;BME280;63802;53.232;6.570;2023-02-15T12:21:26;102570.56;;;11.92;64.38
75221;BME280;63802;53.232;6.570;2023-02-15T12:23:54;102562.81;;;11.94;64.40
75221;BME280;63802;53.232;6.570;2023-02-15T12:27:00;102562.28;;;12.01;63.88
75221;BME280;63802;53.232;6.570;2023-02-15T12:29:30;102559.09;;;11.44;64.39
75221;BME280;63802;53.232;6.570;2023-02-15T12:31:56;102564.56;;;11.44;64.30
75221;BME280;63802;53.232;6.570;2023-02-15T12:34:25;102545.78;;;11.34;64.55
75221;BME280;63802;53.232;6.570;2023-02-15T12:36:52;102549.66;;;11.24;65.13
75221;BME280;63802;53.232;6.570;2023-02-15T12:39:29;102547.59;;;11.13;65.59
75221;BME280;63802;53.232;6.570;2023-02-15T12:44:29;102522.88;;;11.56;65.17
75221;BME280;63802;53.232;6.570;2023-02-15T12:47:18;102537.84;;;11.96;64.56
75221;BME280;63802;53.232;6.570;2023-02-15T12:49:45;102528.59;;;11.80;64.32
75221;BME280;63802;53.232;6.570;2023-02-15T12:52:28;102518.69;;;11.58;64.63
75221;BME280;63802;53.232;6.570;2023-02-15T12:54:53;102513.63;;;11.31;65.15
75221;BME280;63802;53.232;6.570;2023-02-15T12:57:27;102501.22;;;11.42;65.54
75221;BME280;63802;53.232;6.570;2023-02-15T13:00:00;102508.28;;;11.43;65.60
75221;BME280;63802;53.232;6.570;2023-02-15T13:02:34;102498.66;;;11.37;65.69
75221;BME280;63802;53.232;6.570;2023-02-15T13:05:17;102501.06;;;11.38;66.27
75221;BME280;63802;53.232;6.570;2023-02-15T13:07:51;102494.28;;;11.44;65.61
75221;BME280;63802;53.232;6.570;2023-02-15T13:13:20;102483.84;;;11.38;65.89
75221;BME280;63802;53.232;6.570;2023-02-15T13:15:50;102474.94;;;11.12;66.54
75221;BME280;63802;53.232;6.570;2023-02-15T13:18:28;102472.06;;;11.00;66.58
75221;BME280;63802;53.232;6.570;2023-02-15T13:20:55;102472.91;;;10.92;66.91
75221;BME280;63802;53.232;6.570;2023-02-15T13:23:29;102460.34;;;10.91;67.19
75221;BME280;63802;53.232;6.570;2023-02-15T13:25:58;102473.50;;;10.97;67.59
75221;BME280;63802;53.232;6.570;2023-02-15T13:28:36;102464.34;;;11.02;66.83
75221;BME280;63802;53.232;6.570;2023-02-15T13:31:03;102459.19;;;11.09;66.42
75221;BME280;63802;53.232;6.570;2023-02-15T13:33:36;102451.09;;;11.21;65.87
75221;BME280;63802;53.232;6.570;2023-02-15T13:38:45;102445.75;;;11.33;65.60
75221;BME280;63802;53.232;6.570;2023-02-15T13:41:15;102440.34;;;11.24;65.31
75221;BME280;63802;53.232;6.570;2023-02-15T13:44:05;102446.03;;;11.11;65.59
75221;BME280;63802;53.232;6.570;2023-02-15T13:52:13;102452.81;;;10.88;66.32
75221;BME280;63802;53.232;6.570;2023-02-15T14:08:54;102450.91;;;10.80;66.75
75221;BME280;63802;53.232;6.570;2023-02-15T14:11:50;102454.44;;;10.71;67.22
75221;BME280;63802;53.232;6.570;2023-02-15T14:14:22;102446.25;;;10.63;67.22
75221;BME280;63802;53.232;6.570;2023-02-15T14:17:09;102450.25;;;10.65;67.50
75221;BME280;63802;53.232;6.570;2023-02-15T14:19:46;102453.00;;;10.65;67.63
75221;BME280;63802;53.232;6.570;2023-02-15T14:22:44;102462.47;;;10.68;67.58
75221;BME280;63802;53.232;6.570;2023-02-15T14:25:34;102449.63;;;10.68;67.16
75221;BME280;63802;53.232;6.570;2023-02-15T14:30:50;102456.22;;;10.67;67.36
75221;BME280;63802;53.232;6.570;2023-02-15T14:33:38;102449.94;;;10.58;67.04
75221;BME280;63802;53.232;6.570;2023-02-15T14:36:07;102446.44;;;10.58;67.04
75221;BME280;63802;53.232;6.570;2023-02-15T14:41:47;102449.97;;;10.50;67.23
75221;BME280;63802;53.232;6.570;2023-02-15T14:44:22;102441.13;;;10.53;67.24
75221;BME280;63802;53.232;6.570;2023-02-15T14:47:04;102433.75;;;10.45;67.45
75221;BME280;63802;53.232;6.570;2023-02-15T14:49:39;102425.41;;;10.50;67.29
75221;BME280;63802;53.232;6.570;2023-02-15T14:52:09;102433.75;;;10.45;67.52
75221;BME280;63802;53.232;6.570;2023-02-15T15:07:25;102426.22;;;10.33;67.11
75221;BME280;63802;53.232;6.570;2023-02-15T15:10:05;102429.09;;;10.28;67.07
75221;BME280;63802;53.232;6.570;2023-02-15T15:12:45;102420.44;;;10.26;67.23
75221;BME280;63802;53.232;6.570;2023-02-15T15:15:32;102418.34;;;10.15;67.66
75221;BME280;63802;53.232;6.570;2023-02-15T15:18:04;102416.91;;;10.17;67.80
75221;BME280;63802;53.232;6.570;2023-02-15T15:25:50;102410.25;;;10.01;67.98
75221;BME280;63802;53.232;6.570;2023-02-15T15:34:05;102411.53;;;9.78;67.80